Aérodrome :







RETROUVEZ-NOUS SUR...

 
LOGIN :

S'inscrire | Disclaimer

   EN    FR    IT 

 









Légende :    VFR   VFR Marginal   IFR   IFR Intensif   IFR Très Intensif
Visi : 
Plafond : 
>= 8 km
>= 3000ft
5 à 8 km
1000 à 3000 ft
1500m à 5 km
500 à 1000 ft
800 à 1500m
200 à 500 ft
< 800m
< 200 ft
Symboles :   Orages  Brouillard  Fortes neiges  Fortes précipitations  Vent > 20 kt






- Altitude de l'aérodrome : 461 ft
- Code IATA : YYT


CYYT - St John's Int

DERNIER METAR :
  • 150300Z 16025G34KT 3/4SM R11/P6000FT/D -SN OVC004 M00/M01 A3028 RMK SF8 PRESFR SLP263

METARs EXPIRÉS :
  • 150200Z 16018G24KT 12SM -SN OVC009 M00/M01 A3033 RMK SF8 SLP279
  • 150100Z 15012KT 12SM -SN OVC009 M01/M02 A3037 RMK SF8 PRESFR SLP295
  • 150025Z 17012G18KT 12SM -SN OVC010 M01/M02 A3040 RMK SC8 SLP307

TAF AMD TAF CYYT
Valide du 15 à 02h jusqu'au 16 à 00h UTC


150223Z 1502/1524 16018G28KT 6SM -SN OVC010
BECMG 1502/1503 3/4SM -SN VV008
FM150300 16020G30KT 3/4SM -SN VV004
TEMPO 1503/1506 2SM -SN OVC008
PROB30 1503/1506 2SM -SNPL OVC008
FM150600 15030G40KT 1SM -RA BR OVC003
FM151400 20022G32KT 2SM -RA BR BKN006 OVC012
PROB30 1514/1516 1SM BR OVC003
FM151600 20022G32KT 6SM -RA BR OVC008
BECMG 1521/1523 24022G32KT RMK NXT FCST BY 150600Z



MET'MAP, la Météo Aéronautique d'un coup d'oeil ! - Copyright ORBIFLY Décembre 2007 - Disclaimer

ORBIFLY MET'MAP TEAM :

Programmation & Développement : Alexandra Zaïnal
Sur une idée originale de : Baudouin d'Aumeries
Assistance à la programmation : Marc-Olivier Méhu
Soutien technique & logistique : Manuel Goepfert

Contact : metmap@orbifly.com




SOURCES & CREDITS :

   NOAA